Time;durP1;ratioP1;P1;durP2;ratioP2;P2;SDS_P1;SDS_P2;PMS_P1;PMS_P2;Temp;Humidity;BMP_temperature;BMP_pressure;BME280_temperature;BME280_humidity;BME280_pressure;Samples;Min_cycle;Max_cycle;Signal;HPM_P1;HPM_P2
2021/05/12 00:01:30;;;;;;;4.00;2.30;;;18.30;70.70;;;;;;5053936;28;20401;-71
2021/05/12 00:03:56;;;;;;;3.83;2.50;;;18.30;70.60;;;;;;5052108;28;20043;-70
2021/05/12 00:06:21;;;;;;;4.60;2.50;;;18.30;70.70;;;;;;5034777;28;20025;-72
2021/05/12 00:08:47;;;;;;;4.18;2.70;;;18.30;70.60;;;;;;5053014;28;20052;-70
2021/05/12 00:11:13;;;;;;;5.90;2.80;;;18.30;70.50;;;;;;5052818;28;20104;-70
2021/05/12 00:13:38;;;;;;;6.50;2.47;;;18.30;70.70;;;;;;5052896;28;20105;-70
2021/05/12 00:16:04;;;;;;;4.18;2.50;;;18.30;70.80;;;;;;5053205;28;20032;-69
2021/05/12 00:18:36;;;;;;;4.43;2.72;;;18.30;70.80;;;;;;5052855;28;20103;-70
2021/05/12 00:21:03;;;;;;;6.03;2.70;;;18.30;70.70;;;;;;5053431;28;20033;-70
2021/05/12 00:23:40;;;;;;;4.93;2.63;;;18.30;70.60;;;;;;5053074;28;20108;-71
2021/05/12 00:26:06;;;;;;;5.68;3.08;;;18.30;70.60;;;;;;5052914;28;20017;-70
2021/05/12 00:28:31;;;;;;;5.32;3.30;;;18.30;70.70;;;;;;5025804;28;20369;-70
2021/05/12 00:30:57;;;;;;;5.47;3.13;;;18.30;70.60;;;;;;5035302;28;20013;-70
2021/05/12 00:33:22;;;;;;;4.78;2.85;;;18.30;70.70;;;;;;5053217;28;20491;-70
2021/05/12 00:35:48;;;;;;;5.28;2.88;;;18.30;70.60;;;;;;5052381;28;20108;-70
2021/05/12 00:38:13;;;;;;;5.40;2.95;;;18.30;70.70;;;;;;5031134;28;20029;-69
2021/05/12 00:40:39;;;;;;;5.10;3.10;;;18.30;70.70;;;;;;5035060;28;20442;-70
2021/05/12 00:43:04;;;;;;;5.70;3.38;;;18.30;70.60;;;;;;5048802;28;20045;-70
2021/05/12 00:45:30;;;;;;;5.15;3.03;;;18.30;70.60;;;;;;5052492;28;20440;-69
2021/05/12 00:47:55;;;;;;;5.55;3.33;;;18.20;70.60;;;;;;5052510;28;20032;-69
2021/05/12 00:50:26;;;;;;;5.35;3.17;;;18.20;70.40;;;;;;5033892;28;20029;-70
2021/05/12 00:52:52;;;;;;;5.70;3.30;;;18.30;70.40;;;;;;5034526;28;20025;-70
2021/05/12 00:55:18;;;;;;;5.53;3.65;;;18.20;70.40;;;;;;5034371;28;20568;-70
2021/05/12 00:57:44;;;;;;;5.55;3.42;;;18.30;70.50;;;;;;5047265;28;20032;-70
2021/05/12 01:00:12;;;;;;;6.25;3.33;;;18.20;70.40;;;;;;5052827;28;20029;-71
2021/05/12 01:02:37;;;;;;;6.18;3.50;;;18.20;70.50;;;;;;5052683;28;20513;-72
2021/05/12 01:05:04;;;;;;;6.15;3.55;;;18.20;70.50;;;;;;5051692;28;20106;-70
2021/05/12 01:07:30;;;;;;;5.28;3.47;;;18.20;71.00;;;;;;5034521;28;20518;-71
2021/05/12 01:09:55;;;;;;;5.18;3.33;;;18.20;70.30;;;;;;5052549;28;20033;-70
2021/05/12 01:12:21;;;;;;;6.30;3.90;;;18.20;70.40;;;;;;5034721;28;20025;-70
2021/05/12 01:14:47;;;;;;;5.53;3.47;;;18.20;70.40;;;;;;5051724;28;20029;-70
2021/05/12 01:17:14;;;;;;;7.15;4.30;;;18.20;70.40;;;;;;5052262;28;20106;-70
2021/05/12 01:19:43;;;;;;;5.63;3.65;;;18.20;70.40;;;;;;5051963;28;20441;-70
2021/05/12 01:22:10;;;;;;;5.40;3.75;;;18.20;70.40;;;;;;5051246;28;20029;-70
2021/05/12 01:24:36;;;;;;;6.60;4.13;;;18.20;70.30;;;;;;5051081;28;20115;-70
2021/05/12 01:27:02;;;;;;;7.18;4.03;;;18.20;70.30;;;;;;5034398;28;20478;-70
2021/05/12 01:29:28;;;;;;;5.15;3.50;;;18.20;70.30;;;;;;5051973;28;20033;-70
2021/05/12 01:31:54;;;;;;;5.90;4.00;;;18.20;70.40;;;;;;5051905;28;20029;-70
2021/05/12 01:34:21;;;;;;;5.75;3.63;;;18.20;70.30;;;;;;5032966;28;20060;-70
2021/05/12 01:36:47;;;;;;;7.60;4.25;;;18.20;70.20;;;;;;5033502;28;20037;-69
2021/05/12 01:39:14;;;;;;;7.28;4.35;;;18.20;70.30;;;;;;5033557;28;20412;-70
2021/05/12 01:41:40;;;;;;;6.45;4.38;;;18.10;70.10;;;;;;5052064;28;20021;-70
2021/05/12 01:44:11;;;;;;;7.18;4.60;;;18.20;70.30;;;;;;5051239;28;20396;-69
2021/05/12 01:46:38;;;;;;;6.93;4.40;;;18.10;70.30;;;;;;5051731;28;20032;-71
2021/05/12 01:49:05;;;;;;;6.20;4.30;;;18.10;70.10;;;;;;5051319;28;20040;-70
2021/05/12 01:51:31;;;;;;;7.05;4.63;;;18.10;70.10;;;;;;5051180;28;20069;-69
2021/05/12 01:53:56;;;;;;;6.40;4.22;;;18.10;70.10;;;;;;5051417;28;20491;-70
2021/05/12 01:56:22;;;;;;;6.15;4.55;;;18.10;70.20;;;;;;5050586;28;20048;-71
2021/05/12 01:58:47;;;;;;;6.95;4.40;;;18.10;70.10;;;;;;5050106;28;20101;-71
2021/05/12 02:01:13;;;;;;;7.45;5.07;;;18.10;70.10;;;;;;5050967;28;20025;-69
2021/05/12 02:03:39;;;;;;;7.97;5.15;;;18.10;70.30;;;;;;5051074;28;20025;-69
2021/05/12 02:06:05;;;;;;;7.85;4.82;;;18.10;70.30;;;;;;5033394;28;20029;-70
2021/05/12 02:08:31;;;;;;;7.00;4.85;;;18.10;70.20;;;;;;5051666;28;20029;-70
2021/05/12 02:11:02;;;;;;;7.13;4.90;;;18.10;70.40;;;;;;5051186;28;20029;-70
2021/05/12 02:13:30;;;;;;;6.78;4.85;;;18.00;70.40;;;;;;5051054;28;20371;-70
2021/05/12 02:15:57;;;;;;;6.93;5.05;;;18.00;70.40;;;;;;5032920;28;20021;-69
2021/05/12 02:18:23;;;;;;;7.50;5.25;;;18.10;70.30;;;;;;5051175;28;20098;-71
2021/05/12 02:20:49;;;;;;;7.18;4.72;;;18.00;70.30;;;;;;5050910;28;20031;-70
2021/05/12 02:23:16;;;;;;;6.95;4.85;;;18.00;70.30;;;;;;5033069;28;20037;-70
2021/05/12 02:25:42;;;;;;;7.07;5.22;;;18.00;70.30;;;;;;5050390;28;20169;-69
2021/05/12 02:28:09;;;;;;;6.97;5.13;;;18.00;70.40;;;;;;5033023;28;20514;-70
2021/05/12 02:30:34;;;;;;;7.00;5.20;;;18.00;70.30;;;;;;5029786;28;20029;-70
2021/05/12 02:33:00;;;;;;;8.73;5.32;;;18.00;70.40;;;;;;5012594;28;20078;-70
2021/05/12 02:35:26;;;;;;;6.82;5.00;;;18.00;70.40;;;;;;5018727;28;20027;-71
2021/05/12 02:37:52;;;;;;;8.07;4.95;;;18.00;70.40;;;;;;5033222;28;20028;-70
2021/05/12 02:40:19;;;;;;;6.93;4.80;;;18.00;70.40;;;;;;5029660;28;20026;-70
2021/05/12 02:42:45;;;;;;;7.05;4.95;;;18.00;70.40;;;;;;5037270;28;20029;-70
2021/05/12 02:45:12;;;;;;;7.82;5.13;;;18.00;70.40;;;;;;5050388;28;20031;-70
2021/05/12 02:47:38;;;;;;;7.95;5.07;;;18.00;70.40;;;;;;5033441;28;20101;-70
2021/05/12 02:50:08;;;;;;;6.80;4.72;;;18.00;70.40;;;;;;5029513;28;20068;-70
2021/05/12 02:52:33;;;;;;;7.07;5.20;;;18.00;70.40;;;;;;5032499;28;20060;-70
2021/05/12 02:54:59;;;;;;;8.10;5.18;;;18.00;70.40;;;;;;5050365;28;20020;-71
2021/05/12 02:57:25;;;;;;;7.43;5.20;;;18.00;70.30;;;;;;5050814;28;20033;-70
2021/05/12 02:59:51;;;;;;;8.73;5.30;;;18.00;70.10;;;;;;5050985;28;20022;-70
2021/05/12 03:02:17;;;;;;;9.15;6.05;;;17.90;70.20;;;;;;5051135;28;20037;-70
2021/05/12 03:04:42;;;;;;;8.27;5.65;;;18.00;70.40;;;;;;5050595;28;20108;-70
2021/05/12 03:07:08;;;;;;;8.25;5.60;;;18.00;70.50;;;;;;5046716;28;20491;-69
2021/05/12 03:09:34;;;;;;;10.18;5.55;;;17.90;70.30;;;;;;5050967;28;20029;-70
2021/05/12 03:12:00;;;;;;;8.70;5.72;;;18.00;70.40;;;;;;5050875;28;20021;-70
2021/05/12 03:14:25;;;;;;;7.75;5.60;;;17.90;70.40;;;;;;5051737;28;20499;-69
2021/05/12 03:16:51;;;;;;;7.97;5.13;;;17.90;70.40;;;;;;5036526;28;20028;-70
2021/05/12 03:19:17;;;;;;;7.40;5.40;;;17.90;70.50;;;;;;5054089;28;20040;-70
2021/05/12 03:21:43;;;;;;;7.35;5.35;;;17.90;70.40;;;;;;5054143;28;20037;-70
2021/05/12 03:24:09;;;;;;;7.03;4.88;;;17.90;70.50;;;;;;5054142;28;20021;-71
2021/05/12 03:26:35;;;;;;;7.60;5.03;;;17.90;70.20;;;;;;5054307;28;20036;-69
2021/05/12 03:29:03;;;;;;;7.90;5.60;;;17.90;70.50;;;;;;5053576;28;20036;-70
2021/05/12 03:31:29;;;;;;;7.88;5.20;;;17.90;70.40;;;;;;5054038;28;20021;-70
2021/05/12 03:33:57;;;;;;;8.60;5.60;;;17.90;70.30;;;;;;5053788;28;20017;-70
2021/05/12 03:36:24;;;;;;;7.95;5.68;;;17.90;70.50;;;;;;5054307;28;20039;-70
2021/05/12 03:38:51;;;;;;;8.00;5.32;;;17.90;70.50;;;;;;5054192;28;20480;-71
2021/05/12 03:41:17;;;;;;;7.55;5.30;;;17.90;70.40;;;;;;5035590;28;20488;-70
2021/05/12 03:43:43;;;;;;;8.10;5.72;;;17.90;70.50;;;;;;5053608;28;20024;-70
2021/05/12 03:46:08;;;;;;;8.40;5.68;;;17.80;70.40;;;;;;5053845;28;20022;-70
2021/05/12 03:48:34;;;;;;;9.48;6.13;;;17.80;70.40;;;;;;5053762;28;20056;-70
2021/05/12 03:50:59;;;;;;;7.97;5.80;;;17.80;70.40;;;;;;5053799;28;20024;-70
2021/05/12 03:53:26;;;;;;;7.97;5.45;;;17.80;70.30;;;;;;5050043;28;20090;-71
2021/05/12 03:55:52;;;;;;;8.82;5.57;;;17.80;70.60;;;;;;5042101;28;20544;-71
2021/05/12 03:58:17;;;;;;;10.30;6.78;;;17.90;70.30;;;;;;5029406;28;20450;-70
2021/05/12 04:00:45;;;;;;;8.15;5.93;;;17.80;70.50;;;;;;5040742;28;20056;-69
2021/05/12 04:03:11;;;;;;;8.95;6.03;;;17.90;70.50;;;;;;5043395;28;20090;-70
2021/05/12 04:05:36;;;;;;;9.57;6.05;;;17.80;70.60;;;;;;5016815;28;20046;-69
2021/05/12 04:08:03;;;;;;;9.32;6.22;;;17.90;70.60;;;;;;5010364;28;20029;-72
2021/05/12 04:10:29;;;;;;;9.77;6.22;;;17.80;70.70;;;;;;5033886;28;20028;-69
2021/05/12 04:12:54;;;;;;;8.30;5.47;;;17.90;70.70;;;;;;5029558;28;20029;-70
2021/05/12 04:15:20;;;;;;;12.00;6.47;;;17.90;70.70;;;;;;5029145;28;20028;-69
2021/05/12 04:17:46;;;;;;;10.50;6.20;;;17.80;71.10;;;;;;5037874;28;20029;-69
2021/05/12 04:20:14;;;;;;;9.20;5.93;;;17.80;71.10;;;;;;5029408;28;20075;-70
2021/05/12 04:22:40;;;;;;;11.07;6.47;;;17.80;71.50;;;;;;5028191;28;20036;-68
2021/05/12 04:25:09;;;;;;;11.48;6.57;;;17.80;72.40;;;;;;5028321;28;20025;-73
2021/05/12 04:27:35;;;;;;;10.10;6.75;;;17.80;72.00;;;;;;5052723;28;20025;-70
2021/05/12 04:30:01;;;;;;;10.20;6.20;;;17.80;72.40;;;;;;5052643;28;20035;-69
2021/05/12 04:32:27;;;;;;;11.50;6.20;;;17.80;72.30;;;;;;5022882;28;20104;-71
2021/05/12 04:34:52;;;;;;;10.93;6.07;;;17.80;72.30;;;;;;5044594;28;20045;-70
2021/05/12 04:37:18;;;;;;;10.02;5.68;;;17.80;72.10;;;;;;5046076;28;20021;-70
2021/05/12 04:39:43;;;;;;;8.23;5.78;;;17.80;72.10;;;;;;5052880;28;20514;-69
2021/05/12 04:42:09;;;;;;;7.55;5.40;;;17.80;72.20;;;;;;5034251;28;20052;-69
2021/05/12 04:44:35;;;;;;;8.95;6.15;;;17.80;72.00;;;;;;5040866;28;20044;-70
2021/05/12 04:47:00;;;;;;;9.77;5.65;;;17.80;71.90;;;;;;5049849;28;20104;-71
2021/05/12 04:49:26;;;;;;;8.20;4.82;;;17.80;71.90;;;;;;5053041;28;20028;-68
2021/05/12 04:51:52;;;;;;;8.25;5.30;;;17.80;71.90;;;;;;5034695;28;20579;-70
2021/05/12 04:54:17;;;;;;;7.65;5.25;;;17.80;71.60;;;;;;5045048;28;20037;-69
2021/05/12 04:56:43;;;;;;;7.60;4.70;;;17.90;71.60;;;;;;5041811;28;20021;-71
2021/05/12 04:59:09;;;;;;;6.50;4.55;;;17.90;71.30;;;;;;5041086;28;20025;-70
2021/05/12 05:01:34;;;;;;;7.60;5.07;;;17.90;71.20;;;;;;5049737;28;20115;-71
2021/05/12 05:04:00;;;;;;;9.77;5.10;;;17.90;71.20;;;;;;5083269;23;20042;-66
2021/05/12 05:06:27;;;;;;;12.55;5.50;;;17.90;71.00;;;;;;5022282;28;20459;-64
2021/05/12 05:08:53;;;;;;;9.02;5.10;;;17.90;71.20;;;;;;5026474;28;20022;-65
2021/05/12 05:11:18;;;;;;;11.25;4.97;;;17.90;71.80;;;;;;5029734;28;20496;-65
2021/05/12 05:13:44;;;;;;;10.63;4.93;;;17.90;71.70;;;;;;5016533;28;20404;-65
2021/05/12 05:16:09;;;;;;;12.77;4.82;;;17.90;71.60;;;;;;5023456;28;20144;-66
2021/05/12 05:18:37;;;;;;;11.57;4.60;;;18.00;72.20;;;;;;5011746;28;20026;-66
2021/05/12 05:21:05;;;;;;;18.77;5.05;;;18.00;72.90;;;;;;5024403;28;20033;-65
2021/05/12 05:23:33;;;;;;;25.50;5.65;;;18.00;72.80;;;;;;5013136;28;20083;-70
2021/05/12 05:25:59;;;;;;;16.83;5.10;;;18.00;72.40;;;;;;5021096;28;20027;-65
2021/05/12 05:28:24;;;;;;;10.00;4.40;;;18.10;72.20;;;;;;5032379;28;20112;-65
2021/05/12 05:30:50;;;;;;;15.50;4.80;;;18.10;72.10;;;;;;5032358;28;20381;-65
2021/05/12 05:33:15;;;;;;;20.33;4.70;;;18.10;72.10;;;;;;5032304;28;20032;-70
2021/05/12 05:35:41;;;;;;;12.30;4.93;;;18.00;71.20;;;;;;5032021;28;20021;-65
2021/05/12 05:38:07;;;;;;;13.00;4.50;;;18.00;71.30;;;;;;5031512;28;20030;-65
2021/05/12 05:40:32;;;;;;;12.43;4.18;;;18.10;71.20;;;;;;5032258;28;20022;-65
2021/05/12 05:43:01;;;;;;;11.43;4.45;;;18.00;70.90;;;;;;5029928;28;20112;-64
2021/05/12 05:45:26;;;;;;;9.30;4.07;;;18.10;71.10;;;;;;5010861;28;20033;-67
2021/05/12 05:47:52;;;;;;;11.50;4.60;;;18.00;71.00;;;;;;5011904;28;20022;-67
2021/05/12 05:50:18;;;;;;;16.35;4.20;;;18.10;71.40;;;;;;5011721;28;20058;-66
2021/05/12 05:52:43;;;;;;;9.57;4.18;;;18.10;71.30;;;;;;5010735;28;20061;-66
2021/05/12 05:55:10;;;;;;;14.90;4.55;;;18.10;70.80;;;;;;5010281;28;20113;-67
2021/05/12 05:57:35;;;;;;;10.38;3.88;;;18.10;71.10;;;;;;5010593;28;20041;-66
2021/05/12 06:00:02;;;;;;;10.75;4.00;;;18.10;70.80;;;;;;5010599;28;20026;-65
2021/05/12 06:02:27;;;;;;;12.50;4.07;;;18.10;71.00;;;;;;5010323;28;20029;-68
2021/05/12 06:04:53;;;;;;;11.77;4.07;;;18.20;71.20;;;;;;5021114;28;20090;-70
2021/05/12 06:07:18;;;;;;;14.77;4.25;;;18.10;70.60;;;;;;5030865;28;20029;-67
2021/05/12 06:09:44;;;;;;;13.85;3.95;;;18.20;70.30;;;;;;5031404;28;20380;-72
2021/05/12 06:12:09;;;;;;;10.60;4.00;;;18.20;70.10;;;;;;5013816;28;20025;-71
2021/05/12 06:14:35;;;;;;;12.98;4.13;;;18.30;70.10;;;;;;5011483;28;20022;-68
2021/05/12 06:17:00;;;;;;;7.40;3.42;;;18.30;69.90;;;;;;5031109;28;20207;-72
2021/05/12 06:19:26;;;;;;;11.05;4.15;;;18.30;69.50;;;;;;5029829;28;20113;-71
2021/05/12 06:21:52;;;;;;;8.43;3.30;;;18.30;69.30;;;;;;5030479;28;20033;-71
2021/05/12 06:24:18;;;;;;;8.43;3.80;;;18.40;69.00;;;;;;5029866;28;20071;-63
2021/05/12 06:26:43;;;;;;;9.15;3.70;;;18.40;68.80;;;;;;5030988;28;20029;-71
2021/05/12 06:29:09;;;;;;;7.32;3.47;;;18.30;69.10;;;;;;5018062;28;20099;-72
2021/05/12 06:31:35;;;;;;;9.40;3.78;;;18.30;69.30;;;;;;5012840;28;20496;-70
2021/05/12 06:34:02;;;;;;;7.93;3.17;;;18.30;69.30;;;;;;5028372;28;20719;-72
2021/05/12 06:36:27;;;;;;;10.93;3.67;;;18.30;69.40;;;;;;5031374;28;20456;-74
2021/05/12 06:38:53;;;;;;;10.70;4.18;;;18.30;69.50;;;;;;5009564;28;20045;-73
2021/05/12 06:41:19;;;;;;;9.25;3.38;;;18.30;69.20;;;;;;5011584;28;20022;-73
2021/05/12 06:43:44;;;;;;;6.50;3.40;;;18.30;69.10;;;;;;5002185;28;20021;-72
2021/05/12 06:46:10;;;;;;;6.53;3.28;;;18.40;69.10;;;;;;5013692;28;20087;-72
2021/05/12 06:48:35;;;;;;;8.27;3.65;;;18.40;68.90;;;;;;5014756;28;20504;-73
2021/05/12 06:51:01;;;;;;;6.55;3.35;;;18.40;69.00;;;;;;4997833;28;20056;-69
2021/05/12 06:53:32;;;;;;;7.68;3.45;;;18.40;68.80;;;;;;5002960;28;20025;-71
2021/05/12 06:55:59;;;;;;;7.00;3.30;;;18.40;68.70;;;;;;5034890;28;20052;-74
2021/05/12 06:58:24;;;;;;;6.20;3.35;;;18.40;68.40;;;;;;5034855;28;20030;-72
2021/05/12 07:00:51;;;;;;;7.53;3.25;;;18.50;68.40;;;;;;5034218;28;20108;-71
2021/05/12 07:03:22;;;;;;;7.15;3.20;;;18.50;68.10;;;;;;5016322;28;20077;-72
2021/05/12 07:05:49;;;;;;;9.02;3.22;;;18.50;68.10;;;;;;5034483;28;20021;-69
2021/05/12 07:08:15;;;;;;;6.05;3.30;;;18.60;67.90;;;;;;5016737;28;20488;-71
2021/05/12 07:10:41;;;;;;;6.85;3.47;;;18.60;67.70;;;;;;5016491;28;20037;-72
2021/05/12 07:13:07;;;;;;;6.78;3.08;;;18.70;67.50;;;;;;5034471;28;20080;-73
2021/05/12 07:15:32;;;;;;;7.07;3.28;;;18.70;67.10;;;;;;5015400;28;20515;-69
2021/05/12 07:17:58;;;;;;;7.65;3.22;;;18.80;67.00;;;;;;5016534;28;20415;-74
2021/05/12 07:20:23;;;;;;;4.95;2.90;;;18.80;66.90;;;;;;5034443;28;20045;-72
2021/05/12 07:22:49;;;;;;;6.13;3.38;;;18.80;66.60;;;;;;5004428;28;20025;-71
2021/05/12 07:25:15;;;;;;;6.05;3.00;;;18.90;66.60;;;;;;5031484;28;20033;-72
2021/05/12 07:27:41;;;;;;;6.70;3.10;;;18.90;66.30;;;;;;5033509;28;20073;-72
2021/05/12 07:30:07;;;;;;;6.05;3.10;;;19.10;65.80;;;;;;5034070;28;20040;-72
2021/05/12 07:32:33;;;;;;;6.90;3.13;;;19.20;65.60;;;;;;5032875;28;20411;-71
2021/05/12 07:34:59;;;;;;;6.85;3.03;;;19.30;64.90;;;;;;5015988;28;20030;-71
2021/05/12 07:37:24;;;;;;;7.82;3.53;;;19.40;64.40;;;;;;5015706;28;20030;-74
2021/05/12 07:39:51;;;;;;;6.72;3.00;;;19.50;64.10;;;;;;5016296;28;20029;-69
2021/05/12 07:42:18;;;;;;;6.13;3.03;;;19.50;64.20;;;;;;5015502;28;20033;-75
2021/05/12 07:44:44;;;;;;;5.53;3.10;;;19.50;63.80;;;;;;5015790;28;20025;-73
2021/05/12 07:47:09;;;;;;;5.03;2.95;;;19.40;63.80;;;;;;5016246;28;20112;-74
2021/05/12 07:49:37;;;;;;;6.70;3.00;;;19.40;64.00;;;;;;5015504;28;20029;-72
2021/05/12 07:52:05;;;;;;;5.13;2.97;;;19.40;64.20;;;;;;5033738;28;20026;-73
2021/05/12 07:54:30;;;;;;;6.85;3.03;;;19.30;64.30;;;;;;5033062;28;20516;-73
2021/05/12 07:56:56;;;;;;;5.07;2.90;;;19.40;64.00;;;;;;5010658;28;20025;-74
2021/05/12 07:59:22;;;;;;;4.88;2.83;;;19.50;63.90;;;;;;5009004;28;20509;-76
2021/05/12 08:01:48;;;;;;;6.03;3.08;;;19.60;63.50;;;;;;5014415;28;20036;-64
2021/05/12 08:04:13;;;;;;;10.75;3.35;;;19.60;63.20;;;;;;5031583;28;20103;-70
2021/05/12 08:06:39;;;;;;;11.68;3.75;;;19.70;62.90;;;;;;5013575;28;20057;-62
2021/05/12 08:09:09;;;;;;;8.52;2.85;;;19.80;62.90;;;;;;5032089;28;20029;-63
2021/05/12 08:11:35;;;;;;;5.15;2.95;;;19.90;62.30;;;;;;5016066;28;20106;-63
2021/05/12 08:14:02;;;;;;;5.60;2.90;;;19.90;62.10;;;;;;5033605;28;20476;-63
2021/05/12 08:16:28;;;;;;;6.10;3.28;;;20.00;62.00;;;;;;5033358;28;20013;-64
2021/05/12 08:18:53;;;;;;;5.18;2.97;;;20.00;61.60;;;;;;5016181;28;20472;-63
2021/05/12 08:21:19;;;;;;;5.53;3.08;;;19.90;61.90;;;;;;5016013;28;20022;-63
2021/05/12 08:23:45;;;;;;;5.45;2.78;;;19.90;62.00;;;;;;5033423;28;20060;-64
2021/05/12 08:26:10;;;;;;;5.93;2.97;;;19.90;61.80;;;;;;5033819;28;20061;-63
2021/05/12 08:28:39;;;;;;;5.07;2.70;;;20.10;61.70;;;;;;5033693;28;20022;-64
2021/05/12 08:31:05;;;;;;;4.90;2.90;;;20.10;61.30;;;;;;5015769;28;20036;-64
2021/05/12 08:33:31;;;;;;;10.93;2.90;;;20.20;60.90;;;;;;5015473;28;20080;-65
2021/05/12 08:35:57;;;;;;;5.93;3.03;;;20.30;60.50;;;;;;5033688;28;20216;-63
2021/05/12 08:38:25;;;;;;;4.60;2.80;;;20.30;60.30;;;;;;5033615;28;20032;-63
2021/05/12 08:40:57;;;;;;;5.35;2.70;;;20.30;60.40;;;;;;5033522;28;20025;-63
2021/05/12 08:43:24;;;;;;;5.30;2.70;;;20.40;60.30;;;;;;5015616;28;20049;-63
2021/05/12 08:45:50;;;;;;;5.38;2.60;;;20.40;60.00;;;;;;5033172;28;20156;-62
2021/05/12 08:48:17;;;;;;;4.97;3.00;;;20.50;60.00;;;;;;5033333;28;20029;-64
2021/05/12 08:50:44;;;;;;;4.72;2.55;;;20.50;59.90;;;;;;5033239;28;20021;-64
2021/05/12 08:53:10;;;;;;;4.55;2.80;;;20.50;59.60;;;;;;5015352;28;20025;-63
2021/05/12 08:55:37;;;;;;;5.47;2.50;;;20.60;59.80;;;;;;5032927;28;20029;-62
2021/05/12 08:58:03;;;;;;;6.20;2.50;;;20.60;59.20;;;;;;5033098;28;20106;-63
2021/05/12 09:00:29;;;;;;;5.05;2.80;;;20.60;59.30;;;;;;5033050;28;20115;-63
2021/05/12 09:02:58;;;;;;;4.45;2.58;;;20.80;59.20;;;;;;5033048;28;20036;-62
2021/05/12 09:05:25;;;;;;;5.60;2.72;;;20.80;58.40;;;;;;5014718;28;20030;-62
2021/05/12 09:07:51;;;;;;;5.97;2.40;;;20.80;58.50;;;;;;5032899;28;20064;-63
2021/05/12 09:10:16;;;;;;;7.28;2.67;;;20.90;58.70;;;;;;5032807;28;20099;-63
2021/05/12 09:12:43;;;;;;;4.80;2.70;;;20.90;58.10;;;;;;5031789;28;20067;-63
2021/05/12 09:15:11;;;;;;;4.35;2.40;;;20.90;58.30;;;;;;5032455;28;20029;-63
2021/05/12 09:17:41;;;;;;;5.20;2.50;;;21.00;58.20;;;;;;5014742;28;20021;-63
2021/05/12 09:20:19;;;;;;;3.85;2.35;;;21.00;58.10;;;;;;5032739;28;20087;-62
2021/05/12 09:22:46;;;;;;;4.40;2.13;;;20.90;58.00;;;;;;5032522;28;20100;-64
2021/05/12 09:25:17;;;;;;;3.38;2.20;;;21.00;57.90;;;;;;5032246;28;20036;-63
2021/05/12 09:27:51;;;;;;;3.72;2.25;;;21.00;57.90;;;;;;5032644;28;20577;-64
2021/05/12 09:30:21;;;;;;;4.28;2.45;;;20.90;58.40;;;;;;5032591;28;20033;-62
2021/05/12 09:32:46;;;;;;;4.40;2.22;;;20.80;58.10;;;;;;5014750;28;20022;-63
2021/05/12 09:35:14;;;;;;;3.58;2.28;;;20.90;58.50;;;;;;5032025;28;20408;-63
2021/05/12 09:37:42;;;;;;;4.22;2.50;;;20.80;58.70;;;;;;5032335;28;20254;-63
2021/05/12 09:40:16;;;;;;;3.97;2.13;;;20.80;58.40;;;;;;5032480;28;20231;-63
2021/05/12 09:42:43;;;;;;;3.75;1.90;;;20.80;58.50;;;;;;5014749;28;20072;-63
2021/05/12 09:45:19;;;;;;;4.28;2.10;;;20.80;58.60;;;;;;5031865;28;20029;-63
2021/05/12 09:47:47;;;;;;;4.30;2.10;;;20.80;58.90;;;;;;5032149;28;20033;-64
2021/05/12 09:50:16;;;;;;;5.00;2.10;;;20.80;58.80;;;;;;5032027;28;20503;-63
2021/05/12 09:52:43;;;;;;;3.13;1.90;;;20.80;58.60;;;;;;5032164;28;20080;-63
2021/05/12 09:55:10;;;;;;;4.25;2.30;;;20.80;58.60;;;;;;5031695;28;20063;-64
2021/05/12 09:57:36;;;;;;;4.30;2.00;;;20.80;58.70;;;;;;5012339;28;20017;-66
2021/05/12 10:00:23;;;;;;;4.55;2.30;;;20.80;58.10;;;;;;5032960;28;20041;-63
2021/05/12 10:02:48;;;;;;;4.85;2.50;;;20.80;58.60;;;;;;5026041;28;20108;-71
2021/05/12 10:05:14;;;;;;;6.05;2.10;;;20.90;58.70;;;;;;5043186;28;20124;-72
2021/05/12 10:07:52;;;;;;;3.72;1.90;;;20.90;58.40;;;;;;5038927;28;20037;-71
2021/05/12 10:10:41;;;;;;;4.18;2.05;;;20.90;58.20;;;;;;5025765;28;20448;-73
2021/05/12 10:13:07;;;;;;;4.30;2.10;;;21.00;58.40;;;;;;5013676;28;20029;-69
2021/05/12 10:15:33;;;;;;;5.38;2.05;;;21.10;58.20;;;;;;5031507;28;20017;-63
2021/05/12 10:18:01;;;;;;;3.28;2.20;;;21.20;57.60;;;;;;5030733;28;20033;-63
2021/05/12 10:20:26;;;;;;;4.85;1.70;;;21.20;57.80;;;;;;5013505;28;20416;-63
2021/05/12 10:22:54;;;;;;;3.22;1.90;;;21.20;57.00;;;;;;5013658;28;20029;-63
2021/05/12 10:25:21;;;;;;;3.33;1.80;;;21.10;57.00;;;;;;5031568;28;20479;-64
2021/05/12 10:27:51;;;;;;;4.43;2.00;;;21.20;57.50;;;;;;5031328;28;20109;-63
2021/05/12 10:30:17;;;;;;;3.47;1.90;;;21.30;57.40;;;;;;5013827;28;20433;-64
2021/05/12 10:32:54;;;;;;;3.55;1.80;;;21.40;56.80;;;;;;5031569;28;20026;-64
2021/05/12 10:35:40;;;;;;;3.30;1.73;;;21.40;56.60;;;;;;5031214;28;20572;-63
2021/05/12 10:38:32;;;;;;;5.38;1.80;;;21.50;56.70;;;;;;5031517;28;20029;-64
2021/05/12 10:40:58;;;;;;;3.70;1.83;;;21.50;56.50;;;;;;5031525;28;20117;-64
2021/05/12 10:43:34;;;;;;;4.40;1.95;;;21.40;56.50;;;;;;5031220;28;20602;-63
2021/05/12 10:48:47;;;;;;;3.38;1.90;;;21.10;56.90;;;;;;5031081;28;20392;-63
2021/05/12 10:51:26;;;;;;;4.82;1.60;;;21.10;57.50;;;;;;5035398;28;20082;-63
2021/05/12 10:53:53;;;;;;;4.40;1.73;;;21.10;57.50;;;;;;5029652;28;20020;-62
2021/05/12 10:56:21;;;;;;;6.03;2.03;;;21.00;57.70;;;;;;5016038;28;20022;-63
2021/05/12 10:58:59;;;;;;;3.70;1.70;;;21.10;57.60;;;;;;5033390;28;20100;-64
2021/05/12 11:01:33;;;;;;;2.60;1.60;;;21.00;57.70;;;;;;5001169;28;20068;-64
2021/05/12 11:04:07;;;;;;;4.03;1.85;;;21.00;57.60;;;;;;5030351;28;20029;-63
2021/05/12 11:06:35;;;;;;;4.97;1.50;;;21.10;57.80;;;;;;5029218;28;20040;-64
2021/05/12 11:09:17;;;;;;;5.00;1.77;;;21.20;57.60;;;;;;5030488;28;20455;-63
2021/05/12 11:11:49;;;;;;;4.85;1.63;;;21.40;57.40;;;;;;5031236;28;20097;-62
2021/05/12 11:14:35;;;;;;;3.70;1.90;;;21.50;56.80;;;;;;5011420;28;20032;-63
2021/05/12 11:17:12;;;;;;;3.20;1.80;;;21.60;56.90;;;;;;4998988;28;20025;-63
2021/05/12 11:19:41;;;;;;;3.35;1.90;;;21.60;56.40;;;;;;5031892;28;20049;-64
2021/05/12 11:24:53;;;;;;;3.50;1.77;;;21.40;56.90;;;;;;5028419;28;20037;-63
2021/05/12 11:32:33;;;;;;;6.07;1.95;;;21.40;57.10;;;;;;5029471;28;20492;-65
2021/05/12 11:34:59;;;;;;;4.38;2.10;;;21.40;56.90;;;;;;5010621;28;20121;-66
2021/05/12 11:37:26;;;;;;;4.32;2.13;;;21.30;57.20;;;;;;5037595;28;20108;-65
2021/05/12 11:39:54;;;;;;;7.07;2.05;;;21.30;57.60;;;;;;5034560;28;20026;-67
2021/05/12 11:42:22;;;;;;;3.50;1.98;;;21.20;57.80;;;;;;5016453;28;20468;-63
2021/05/12 11:44:49;;;;;;;3.58;1.98;;;21.10;57.90;;;;;;5015543;28;20672;-63
2021/05/12 11:47:31;;;;;;;5.45;2.15;;;21.10;58.00;;;;;;5033212;28;20084;-63
2021/05/12 11:49:56;;;;;;;3.88;2.10;;;21.10;58.40;;;;;;5015657;28;20091;-63
2021/05/12 11:52:33;;;;;;;4.60;2.30;;;21.10;58.50;;;;;;5032039;28;20480;-63
2021/05/12 11:55:06;;;;;;;4.85;2.00;;;21.00;58.40;;;;;;5034610;28;20021;-68
2021/05/12 11:57:32;;;;;;;3.50;2.00;;;21.10;58.70;;;;;;5047121;28;20025;-64
2021/05/12 12:00:05;;;;;;;4.45;2.35;;;21.10;58.70;;;;;;5017306;28;20036;-66
2021/05/12 12:02:31;;;;;;;4.55;2.10;;;21.20;58.60;;;;;;5034311;28;20484;-65
2021/05/12 12:05:02;;;;;;;4.22;2.03;;;21.20;58.50;;;;;;5033470;28;20119;-65
2021/05/12 12:07:34;;;;;;;3.33;1.95;;;21.20;58.60;;;;;;5015928;28;20038;-63
2021/05/12 12:10:08;;;;;;;3.53;2.08;;;21.20;58.80;;;;;;5016017;28;20065;-63
2021/05/12 12:12:35;;;;;;;10.85;2.65;;;21.20;58.60;;;;;;5044358;28;20026;-65
2021/05/12 12:15:08;;;;;;;4.65;2.10;;;21.10;58.80;;;;;;5030242;28;20512;-66
2021/05/12 12:17:34;;;;;;;4.13;2.35;;;21.10;58.80;;;;;;5033340;28;20043;-68
2021/05/12 12:20:01;;;;;;;4.00;2.30;;;21.10;58.70;;;;;;5033982;28;20612;-69
2021/05/12 12:22:27;;;;;;;7.65;2.60;;;21.10;58.80;;;;;;5009112;28;20037;-71
2021/05/12 12:24:53;;;;;;;4.72;2.15;;;21.00;59.00;;;;;;5014834;28;20112;-72
2021/05/12 12:27:21;;;;;;;4.70;2.38;;;21.00;59.10;;;;;;5032816;28;20064;-69
2021/05/12 12:29:50;;;;;;;4.70;2.22;;;21.00;59.00;;;;;;5013966;28;20026;-71
2021/05/12 12:32:16;;;;;;;4.07;2.20;;;21.00;59.10;;;;;;5019439;28;20025;-70
2021/05/12 12:34:44;;;;;;;3.58;2.35;;;21.00;59.00;;;;;;5033098;28;20075;-74
2021/05/12 12:37:14;;;;;;;4.47;2.17;;;20.90;59.30;;;;;;5023939;28;20033;-69
2021/05/12 12:39:46;;;;;;;3.88;2.08;;;20.90;59.40;;;;;;5013144;28;20033;-74
2021/05/12 12:42:15;;;;;;;10.73;2.33;;;20.90;59.30;;;;;;5014696;28;20029;-71
2021/05/12 12:44:42;;;;;;;9.00;2.70;;;20.90;59.40;;;;;;5014688;28;20029;-69
2021/05/12 12:47:27;;;;;;;7.00;2.47;;;20.90;59.40;;;;;;5012228;28;20449;-64
2021/05/12 12:49:58;;;;;;;7.40;2.38;;;20.90;59.40;;;;;;5013026;28;20033;-65
2021/05/12 12:52:31;;;;;;;4.88;2.20;;;21.00;59.30;;;;;;5032391;28;20025;-63
2021/05/12 12:55:16;;;;;;;6.03;2.30;;;20.90;59.30;;;;;;5032858;28;20036;-64
2021/05/12 12:57:54;;;;;;;5.20;2.13;;;20.90;59.30;;;;;;5033240;28;20028;-64